Time;durP1;ratioP1;P1;durP2;ratioP2;P2;SDS_P1;SDS_P2;PMS_P1;PMS_P2;Temp;Humidity;BMP_temperature;BMP_pressure;BME280_temperature;BME280_humidity;BME280_pressure;Samples;Min_cycle;Max_cycle;Signal;HPM_P1;HPM_P2
2023/01/13 00:02:09;;;;;;;9.98;6.63;;;;;;;3.84;68.97;95295.38;5028850;28;20025;-69
2023/01/13 00:04:34;;;;;;;9.55;6.03;;;;;;;3.79;69.29;95290.34;5027823;28;20113;-68
2023/01/13 00:06:59;;;;;;;8.10;5.40;;;;;;;3.76;69.36;95296.53;5043729;28;20558;-69
2023/01/13 00:09:25;;;;;;;8.43;5.28;;;;;;;3.80;69.16;95298.13;5027433;28;20069;-68
2023/01/13 00:11:50;;;;;;;7.35;5.47;;;;;;;3.76;68.94;95294.59;5028168;28;20447;-68
2023/01/13 00:14:17;;;;;;;8.02;5.93;;;;;;;3.77;69.27;95298.09;5028120;28;20056;-69
2023/01/13 00:16:42;;;;;;;8.35;5.88;;;;;;;3.80;69.28;95295.41;5027961;28;20451;-68
2023/01/13 00:19:08;;;;;;;8.40;5.63;;;;;;;3.83;69.06;95296.56;5043251;28;20025;-68
2023/01/13 00:21:33;;;;;;;8.05;6.05;;;;;;;3.81;68.94;95294.22;5027252;28;20068;-68
2023/01/13 00:23:58;;;;;;;8.85;6.07;;;;;;;3.95;68.72;95294.25;5028132;28;20032;-69
2023/01/13 00:26:25;;;;;;;7.47;5.75;;;;;;;4.04;68.04;95296.63;5026631;28;20032;-68
2023/01/13 00:28:55;;;;;;;9.65;6.85;;;;;;;4.09;67.95;95296.25;5027954;28;20037;-69
2023/01/13 00:31:21;;;;;;;10.00;6.72;;;;;;;4.08;67.93;95291.19;5027669;28;20030;-68
2023/01/13 00:33:50;;;;;;;10.93;7.57;;;;;;;4.11;67.87;95296.63;5028696;28;20030;-71
2023/01/13 00:36:16;;;;;;;9.60;7.05;;;;;;;4.14;67.56;95305.97;5028529;28;20106;-68
2023/01/13 00:38:44;;;;;;;10.75;7.38;;;;;;;4.12;67.64;95291.97;5027302;28;20400;-68
2023/01/13 00:41:11;;;;;;;14.80;9.27;;;;;;;4.14;67.53;95297.81;5028033;28;20029;-69
2023/01/13 00:43:36;;;;;;;13.00;8.88;;;;;;;4.14;67.67;95295.09;5026989;28;20033;-69
2023/01/13 00:46:04;;;;;;;11.02;8.02;;;;;;;4.09;67.73;95284.59;5028049;28;20021;-69
2023/01/13 00:48:29;;;;;;;10.50;7.65;;;;;;;4.10;67.52;95289.63;5025575;28;20033;-68
2023/01/13 00:51:00;;;;;;;12.15;7.68;;;;;;;4.09;67.48;95290.81;5027379;28;20373;-69
2023/01/13 00:53:25;;;;;;;11.50;7.25;;;;;;;4.07;67.40;95284.16;5026176;28;20025;-68
2023/01/13 00:56:04;;;;;;;11.00;7.28;;;;;;;4.10;67.59;95288.84;5026889;28;20025;-69
2023/01/13 00:58:31;;;;;;;11.38;8.00;;;;;;;4.13;67.38;95290.78;5027995;28;20053;-69
2023/01/13 01:01:01;;;;;;;10.77;8.00;;;;;;;4.11;67.60;95293.91;5025108;28;20081;-68
2023/01/13 01:03:28;;;;;;;11.77;8.07;;;;;;;4.11;67.36;95293.91;5027753;28;20033;-69
2023/01/13 01:05:53;;;;;;;11.02;7.38;;;;;;;4.08;67.73;95289.25;5026714;28;20186;-68
2023/01/13 01:08:19;;;;;;;10.30;7.43;;;;;;;4.11;67.73;95285.75;5027038;28;20423;-67
2023/01/13 01:10:44;;;;;;;11.32;7.82;;;;;;;4.11;67.41;95285.75;5025546;28;20519;-68
2023/01/13 01:13:13;;;;;;;10.90;7.40;;;;;;;4.16;67.29;95282.66;5026391;28;20100;-67
2023/01/13 01:15:40;;;;;;;11.07;7.63;;;;;;;4.21;67.35;95289.66;5027406;28;20040;-68
2023/01/13 01:18:05;;;;;;;9.48;7.55;;;;;;;4.17;67.08;95267.09;5024923;28;20022;-68
2023/01/13 01:20:30;;;;;;;9.60;6.65;;;;;;;4.26;66.91;95272.94;5027645;28;20104;-68
2023/01/13 01:22:56;;;;;;;9.73;6.80;;;;;;;4.16;66.88;95265.53;5026260;28;20021;-69
2023/01/13 01:25:21;;;;;;;9.38;6.97;;;;;;;4.25;67.04;95279.56;5027233;28;20373;-69
2023/01/13 01:27:47;;;;;;;9.27;7.25;;;;;;;4.17;67.00;95278.75;5027119;28;20492;-70
2023/01/13 01:30:13;;;;;;;9.70;6.82;;;;;;;4.22;67.01;95278.38;5026981;28;20021;-68
2023/01/13 01:32:38;;;;;;;9.88;7.00;;;;;;;4.27;66.69;95271.78;5027033;28;20043;-69
2023/01/13 01:35:04;;;;;;;9.60;7.30;;;;;;;4.31;66.62;95279.94;5025938;28;20026;-69
2023/01/13 01:37:29;;;;;;;10.07;6.68;;;;;;;4.24;66.83;95267.09;5026764;28;20021;-68
2023/01/13 01:39:55;;;;;;;9.35;7.13;;;;;;;4.25;66.96;95272.16;5023836;28;20484;-68
2023/01/13 01:45:22;;;;;;;8.88;6.72;;;;;;;4.23;66.83;95263.59;5025083;28;20088;-68
2023/01/13 01:47:50;;;;;;;8.27;6.15;;;;;;;4.26;66.71;95259.34;5024360;28;20404;-68
2023/01/13 01:50:16;;;;;;;10.07;6.15;;;;;;;4.25;66.44;95255.06;5027072;28;20055;-69
2023/01/13 01:52:43;;;;;;;8.60;6.43;;;;;;;4.32;66.53;95265.94;5024718;28;20022;-69
2023/01/13 01:55:15;;;;;;;8.90;6.43;;;;;;;4.36;66.18;95263.22;5008904;28;20034;-68
2023/01/13 01:57:45;;;;;;;7.70;6.57;;;;;;;4.34;66.32;95263.59;5025934;28;20454;-68
2023/01/13 02:00:11;;;;;;;7.90;6.32;;;;;;;4.34;66.54;95266.31;5026299;28;20037;-69
2023/01/13 02:02:36;;;;;;;6.85;5.82;;;;;;;4.39;66.21;95263.22;5025063;28;20112;-69
2023/01/13 02:05:02;;;;;;;7.63;5.80;;;;;;;4.45;65.98;95263.59;5024024;28;20377;-68
2023/01/13 02:07:29;;;;;;;7.95;6.20;;;;;;;4.43;65.89;95258.56;5026598;28;20397;-68
2023/01/13 02:10:08;;;;;;;7.63;5.72;;;;;;;4.47;65.60;95264.00;5105174;27;20392;-69
2023/01/13 02:12:34;;;;;;;7.28;5.47;;;;;;;4.46;65.92;95267.88;5104626;28;20516;-69
2023/01/13 02:15:20;;;;;;;6.63;5.22;;;;;;;4.38;65.89;95261.66;5085412;28;20039;-69
2023/01/13 02:18:06;;;;;;;7.88;5.80;;;;;;;4.30;66.43;95262.84;5088238;28;20077;-68
2023/01/13 02:21:04;;;;;;;8.20;6.50;;;;;;;4.25;66.52;95258.56;5101989;28;20121;-70
2023/01/13 02:26:46;;;;;;;8.20;6.00;;;;;;;4.26;66.56;95254.66;5105936;28;20191;-69
2023/01/13 02:32:27;;;;;;;7.63;5.55;;;;;;;4.30;66.43;95256.59;5103234;28;20594;-69
2023/01/13 02:35:31;;;;;;;7.85;5.57;;;;;;;4.25;66.57;95257.78;5103253;28;20019;-68
2023/01/13 02:37:56;;;;;;;7.97;6.15;;;;;;;4.20;66.67;95250.00;5101763;28;20134;-69
2023/01/13 02:40:33;;;;;;;7.88;6.22;;;;;;;4.26;66.48;95253.91;5086120;28;20027;-70
2023/01/13 02:46:00;;;;;;;8.13;6.47;;;;;;;4.33;65.88;95245.72;5101975;28;20039;-69
2023/01/13 02:48:26;;;;;;;8.63;6.13;;;;;;;4.32;66.13;95255.06;5086868;28;20034;-69
2023/01/13 02:50:57;;;;;;;9.52;6.47;;;;;;;4.31;66.14;95258.94;5102945;28;20031;-68
2023/01/13 02:53:29;;;;;;;8.80;6.80;;;;;;;4.27;66.27;95255.44;5102778;28;20020;-69
2023/01/13 02:55:55;;;;;;;8.48;6.05;;;;;;;4.21;66.56;95254.28;5102862;28;20062;-69
2023/01/13 02:58:23;;;;;;;9.90;6.72;;;;;;;4.19;66.56;95251.94;5085107;28;20373;-69
2023/01/13 03:00:49;;;;;;;8.60;6.35;;;;;;;4.15;66.45;95253.09;5103320;28;20055;-69
2023/01/13 03:03:14;;;;;;;9.63;7.13;;;;;;;4.19;66.71;95256.63;5102376;28;20028;-69
2023/01/13 03:05:41;;;;;;;7.95;6.32;;;;;;;4.21;66.63;95251.56;5104285;28;20028;-68
2023/01/13 03:08:30;;;;;;;9.18;6.93;;;;;;;4.29;66.24;95255.81;5083952;28;20092;-69
2023/01/13 03:11:00;;;;;;;8.82;6.70;;;;;;;4.26;66.49;95249.22;5101801;28;20078;-69
2023/01/13 03:13:44;;;;;;;9.13;6.43;;;;;;;4.34;66.21;95254.66;5102672;28;20394;-68
2023/01/13 03:16:15;;;;;;;8.45;6.40;;;;;;;4.36;65.97;95247.69;5102558;28;20520;-68
2023/01/13 03:19:28;;;;;;;9.10;6.65;;;;;;;4.34;66.11;95251.94;5102725;28;20089;-69
2023/01/13 03:22:10;;;;;;;8.18;5.88;;;;;;;4.25;66.32;95247.69;5074385;28;20121;-71
2023/01/13 03:24:41;;;;;;;10.88;6.97;;;;;;;4.22;66.37;95248.44;5087577;28;20025;-69
2023/01/13 03:27:11;;;;;;;9.20;6.35;;;;;;;4.20;66.28;95244.56;5072552;28;20395;-70
2023/01/13 03:29:38;;;;;;;9.93;6.57;;;;;;;4.28;66.46;95257.00;5087377;28;20077;-68
2023/01/13 03:32:10;;;;;;;9.73;6.57;;;;;;;4.32;66.20;95246.91;5089871;28;20024;-68
2023/01/13 03:34:47;;;;;;;8.45;6.30;;;;;;;4.29;66.25;95252.31;5089566;28;20028;-68
2023/01/13 03:37:14;;;;;;;7.10;5.85;;;;;;;4.35;65.78;95256.22;5087066;28;20023;-69
2023/01/13 03:39:42;;;;;;;8.32;5.97;;;;;;;4.39;65.78;95260.50;5088781;28;20031;-69
2023/01/13 03:42:27;;;;;;;7.35;5.72;;;;;;;4.38;65.95;95267.13;5086869;28;20032;-68
2023/01/13 03:44:57;;;;;;;6.72;5.45;;;;;;;4.42;65.81;95262.47;5088911;28;20028;-68
2023/01/13 03:47:53;;;;;;;6.82;5.20;;;;;;;4.40;65.90;95270.22;5071573;28;20019;-69
2023/01/13 03:50:52;;;;;;;6.35;5.28;;;;;;;4.37;65.79;95262.84;5082581;28;20047;-69
2023/01/13 03:53:23;;;;;;;6.35;5.50;;;;;;;4.31;65.95;95261.69;5083820;28;20123;-69
2023/01/13 03:55:54;;;;;;;7.20;5.70;;;;;;;4.36;65.81;95263.22;5087242;28;20585;-69
2023/01/13 03:58:22;;;;;;;7.78;5.78;;;;;;;4.37;65.76;95264.78;5070881;28;20505;-68
2023/01/13 04:01:12;;;;;;;8.30;5.85;;;;;;;4.48;65.45;95271.00;5054552;28;20470;-68
2023/01/13 04:03:41;;;;;;;8.80;5.63;;;;;;;4.43;65.42;95264.00;5088870;28;20035;-69
2023/01/13 04:06:10;;;;;;;6.78;6.00;;;;;;;4.47;65.37;95267.50;5087995;28;20032;-68
2023/01/13 04:08:35;;;;;;;8.35;6.20;;;;;;;4.53;65.04;95270.63;5086285;28;20056;-68
2023/01/13 04:11:05;;;;;;;6.72;5.18;;;;;;;4.57;65.21;95276.81;5070872;28;20020;-68
2023/01/13 04:13:34;;;;;;;7.03;5.45;;;;;;;4.57;65.23;95271.38;5070868;28;20120;-69
2023/01/13 04:16:00;;;;;;;6.43;5.25;;;;;;;4.62;64.68;95271.00;5071237;28;20028;-70
2023/01/13 04:18:27;;;;;;;10.13;6.68;;;;;;;4.63;64.86;95280.72;5072015;28;20038;-68
2023/01/13 04:20:53;;;;;;;7.57;5.38;;;;;;;4.56;65.13;95278.00;5087378;28;20035;-67
2023/01/13 04:23:19;;;;;;;8.02;5.72;;;;;;;4.50;65.35;95276.84;5087484;28;20039;-68
2023/01/13 04:25:45;;;;;;;8.75;5.93;;;;;;;4.42;65.62;95276.06;5086175;28;20050;-68
2023/01/13 04:28:10;;;;;;;7.00;5.97;;;;;;;4.39;65.71;95282.28;5088747;28;20755;-69
2023/01/13 04:30:36;;;;;;;7.55;5.65;;;;;;;4.41;65.58;95277.22;5088608;28;20024;-68
2023/01/13 04:33:03;;;;;;;8.73;6.32;;;;;;;4.42;65.69;95284.22;5068769;28;20496;-70
2023/01/13 04:35:28;;;;;;;7.22;5.93;;;;;;;4.37;65.67;95273.72;5089223;28;20024;-68
2023/01/13 04:37:54;;;;;;;7.85;5.38;;;;;;;4.43;65.61;95285.78;5086106;28;20463;-69
2023/01/13 04:40:19;;;;;;;7.10;5.82;;;;;;;4.43;65.70;95285.78;5088578;28;20402;-69
2023/01/13 04:42:45;;;;;;;6.95;5.57;;;;;;;4.47;65.51;95286.56;5087076;28;20032;-68
2023/01/13 04:45:11;;;;;;;7.22;6.28;;;;;;;4.49;65.45;95286.94;5088525;28;20077;-69
2023/01/13 04:47:36;;;;;;;6.68;5.55;;;;;;;4.48;65.79;95285.41;5087920;28;20130;-69
2023/01/13 04:50:02;;;;;;;8.45;6.53;;;;;;;4.41;65.72;95285.38;5088042;28;20073;-68
2023/01/13 04:52:27;;;;;;;7.43;6.07;;;;;;;4.43;65.98;95287.72;5087235;28;20680;-68
2023/01/13 04:54:53;;;;;;;6.93;6.20;;;;;;;4.35;66.10;95289.66;5085646;28;20452;-68
2023/01/13 04:57:18;;;;;;;11.82;8.55;;;;;;;4.27;66.59;95285.38;5088264;28;20390;-69
2023/01/13 04:59:44;;;;;;;11.10;8.57;;;;;;;4.23;66.73;95292.75;5086784;28;20039;-69
2023/01/13 05:02:13;;;;;;;8.25;6.07;;;;;;;4.19;67.01;95281.09;5088379;28;20027;-69
2023/01/13 05:04:39;;;;;;;8.75;6.57;;;;;;;4.14;67.04;95289.66;5086805;28;20443;-68
2023/01/13 05:07:05;;;;;;;10.27;7.28;;;;;;;4.05;67.45;95289.22;5086425;28;20158;-67
2023/01/13 05:09:30;;;;;;;10.50;7.15;;;;;;;4.02;67.65;95288.06;5088342;28;20051;-69
2023/01/13 05:17:23;;;;;;;;;;;;;;;4.00;67.76;95293.88;5087249;28;20121;-67
2023/01/13 05:19:49;;;;;;;10.00;6.80;;;;;;;4.02;67.63;95293.50;5088027;28;20366;-69
2023/01/13 05:27:42;;;;;;;12.20;8.73;;;;;;;3.92;68.31;95300.47;5087904;28;20297;-69
2023/01/13 05:30:08;;;;;;;10.77;8.77;;;;;;;3.82;68.44;95293.06;5086310;28;20236;-67
2023/01/13 05:32:33;;;;;;;12.40;8.40;;;;;;;3.78;68.78;95297.72;5088207;28;20032;-68
2023/01/13 05:34:59;;;;;;;11.23;8.82;;;;;;;3.83;68.67;95293.84;5086657;28;20028;-68
2023/01/13 05:37:25;;;;;;;11.98;9.18;;;;;;;3.81;68.76;95294.22;5087669;28;20032;-69
2023/01/13 05:45:19;;;;;;;11.68;9.18;;;;;;;3.99;68.10;95297.78;5087471;28;19923;-68
2023/01/13 05:47:44;;;;;;;14.05;9.18;;;;;;;4.04;68.15;95295.84;5086316;28;20024;-67
2023/01/13 05:50:10;;;;;;;13.27;8.52;;;;;;;4.00;68.02;95304.75;5085888;28;20020;-69
2023/01/13 05:52:35;;;;;;;11.80;8.57;;;;;;;3.96;68.11;95306.72;5087295;28;20447;-69
2023/01/13 05:55:00;;;;;;;14.50;9.77;;;;;;;4.00;68.32;95306.72;5086532;28;20042;-69
2023/01/13 05:57:26;;;;;;;14.02;9.68;;;;;;;4.03;68.25;95305.19;5087633;28;20406;-68
2023/01/13 05:59:51;;;;;;;16.70;10.68;;;;;;;4.00;68.22;95306.72;5086068;28;20040;-68
2023/01/13 06:02:17;;;;;;;13.10;9.25;;;;;;;4.04;67.90;95306.72;5086034;28;20088;-68
2023/01/13 06:04:42;;;;;;;14.43;8.90;;;;;;;4.09;67.78;95311.78;5085898;28;20085;-68
2023/01/13 06:07:08;;;;;;;14.95;9.25;;;;;;;4.09;67.80;95312.56;5087423;28;20068;-68
2023/01/13 06:09:33;;;;;;;13.77;9.40;;;;;;;4.07;67.81;95319.53;5088060;28;20101;-67
2023/01/13 06:12:00;;;;;;;13.40;9.40;;;;;;;4.06;67.93;95316.03;5085199;28;20020;-67
2023/01/13 06:14:38;;;;;;;14.40;9.57;;;;;;;4.01;68.00;95319.13;5086297;28;20482;-68
2023/01/13 06:17:09;;;;;;;16.08;10.10;;;;;;;4.05;68.22;95324.59;5084684;28;20096;-68
2023/01/13 06:19:34;;;;;;;13.45;9.48;;;;;;;3.92;68.38;95332.34;5085921;28;20111;-68
2023/01/13 06:22:02;;;;;;;12.15;8.40;;;;;;;3.97;68.25;95319.16;5084696;28;20040;-70
2023/01/13 06:24:28;;;;;;;13.32;9.07;;;;;;;3.96;68.29;95328.47;5067284;28;20378;-69
2023/01/13 06:26:53;;;;;;;13.85;9.40;;;;;;;3.97;68.35;95330.03;5085445;28;20024;-68
2023/01/13 06:29:19;;;;;;;13.48;9.65;;;;;;;3.97;68.34;95329.25;5083269;28;20582;-68
2023/01/13 06:31:44;;;;;;;14.82;9.95;;;;;;;3.97;68.53;95340.13;5085881;28;20487;-69
2023/01/13 06:34:11;;;;;;;15.50;10.13;;;;;;;3.96;68.45;95339.38;5084483;28;20434;-68
2023/01/13 06:36:47;;;;;;;15.40;9.73;;;;;;;4.03;68.30;95329.66;5084289;28;20031;-69
2023/01/13 06:39:15;;;;;;;13.57;9.73;;;;;;;4.08;68.31;95330.06;5066651;28;20092;-68
2023/01/13 06:44:25;;;;;;;13.68;9.75;;;;;;;3.95;68.51;95323.41;5085533;28;20801;-67
2023/01/13 06:46:50;;;;;;;18.98;12.07;;;;;;;4.04;68.34;95326.53;5083325;28;20020;-69
2023/01/13 06:49:16;;;;;;;14.48;9.30;;;;;;;4.12;67.84;95327.34;5085414;28;20100;-69
2023/01/13 06:51:41;;;;;;;13.07;9.38;;;;;;;4.19;67.79;95330.88;5084592;28;20028;-71
2023/01/13 06:54:07;;;;;;;14.25;9.50;;;;;;;4.21;67.74;95325.03;5066824;28;20035;-68
2023/01/13 06:56:33;;;;;;;15.02;9.70;;;;;;;4.19;67.54;95330.88;5088201;28;20044;-68
2023/01/13 06:58:58;;;;;;;14.73;9.52;;;;;;;4.28;67.28;95327.75;5089186;28;20031;-67
2023/01/13 07:01:23;;;;;;;13.65;9.40;;;;;;;4.35;67.22;95344.09;5088634;28;20031;-67
2023/01/13 07:03:49;;;;;;;13.55;8.73;;;;;;;4.39;67.11;95338.66;5088701;28;20024;-68
2023/01/13 07:06:14;;;;;;;13.10;8.88;;;;;;;4.43;66.87;95334.00;5089726;28;20039;-70
2023/01/13 07:08:40;;;;;;;12.32;8.40;;;;;;;4.55;66.48;95343.75;5086564;28;20105;-69
2023/01/13 07:11:05;;;;;;;14.15;9.13;;;;;;;4.60;66.74;95333.25;5088771;28;20074;-68
2023/01/13 07:16:17;;;;;;;15.15;10.18;;;;;;;4.69;66.11;95327.41;5088389;28;20146;-67
2023/01/13 07:18:42;;;;;;;14.02;8.30;;;;;;;4.68;65.95;95323.91;5088749;28;20024;-68
2023/01/13 07:21:09;;;;;;;10.85;7.50;;;;;;;4.68;65.96;95321.19;5088100;28;20039;-68
2023/01/13 07:23:39;;;;;;;11.48;8.23;;;;;;;4.72;65.86;95329.34;5087524;28;20028;-68
2023/01/13 07:26:08;;;;;;;11.73;7.30;;;;;;;4.70;65.81;95327.03;5086409;28;20012;-67
2023/01/13 07:28:34;;;;;;;13.48;7.80;;;;;;;4.71;65.78;95325.84;5088520;28;20077;-68
2023/01/13 07:31:00;;;;;;;13.70;8.77;;;;;;;4.69;65.70;95322.72;5086562;28;20028;-67
2023/01/13 07:33:25;;;;;;;12.18;7.97;;;;;;;4.60;66.00;95322.34;5086882;28;20106;-68
2023/01/13 07:35:55;;;;;;;15.10;8.65;;;;;;;4.62;65.99;95319.22;5086982;28;20013;-69
2023/01/13 07:38:20;;;;;;;12.05;7.82;;;;;;;4.52;66.05;95312.59;5087546;28;20169;-68
2023/01/13 07:40:46;;;;;;;11.55;8.18;;;;;;;4.62;66.21;95319.22;5088748;28;20482;-69
2023/01/13 07:43:45;;;;;;;11.65;8.20;;;;;;;4.68;66.04;95323.91;5087190;28;20485;-67
2023/01/13 07:46:04;;;;;;;12.95;8.20;;;;;;;4.76;65.81;95330.91;5086651;28;20063;-69
2023/01/13 07:48:33;;;;;;;10.70;6.63;;;;;;;4.82;65.37;95331.31;5087467;28;20470;-68
2023/01/13 07:51:06;;;;;;;11.18;7.55;;;;;;;4.90;64.86;95334.78;5087901;28;20104;-68
2023/01/13 07:53:32;;;;;;;12.48;7.38;;;;;;;4.88;64.94;95331.69;5069946;28;20027;-67
2023/01/13 07:55:58;;;;;;;11.98;7.30;;;;;;;4.88;64.98;95329.75;5087750;28;20036;-69
2023/01/13 07:58:24;;;;;;;11.43;7.50;;;;;;;4.91;65.16;95328.94;5086973;28;20059;-69
2023/01/13 08:00:49;;;;;;;12.93;7.70;;;;;;;4.91;65.22;95333.63;5088104;28;20024;-68
2023/01/13 08:03:15;;;;;;;9.02;6.90;;;;;;;4.96;65.06;95338.69;5087815;28;20031;-69
2023/01/13 08:05:40;;;;;;;10.93;6.68;;;;;;;5.04;64.88;95337.50;5087207;28;20055;-70
2023/01/13 08:08:06;;;;;;;9.65;6.28;;;;;;;5.07;64.50;95342.19;5087457;28;20024;-69
2023/01/13 08:10:31;;;;;;;10.30;6.97;;;;;;;5.14;64.47;95338.66;5086723;28;20032;-71
2023/01/13 08:15:41;;;;;;;11.05;7.25;;;;;;;5.28;64.11;95339.44;5087999;28;20512;-69
2023/01/13 08:18:06;;;;;;;11.00;6.68;;;;;;;5.33;63.81;95339.03;5086612;28;20096;-68
2023/01/13 08:20:31;;;;;;;13.32;7.75;;;;;;;5.48;63.66;95333.53;5087487;28;20478;-69
2023/01/13 08:22:57;;;;;;;8.40;6.45;;;;;;;5.68;62.75;95337.38;5087120;28;20024;-69
2023/01/13 08:25:23;;;;;;;12.18;7.25;;;;;;;5.75;62.04;95337.34;5069442;28;20402;-70
2023/01/13 08:27:49;;;;;;;11.82;6.57;;;;;;;5.84;61.59;95339.63;5087291;28;20096;-68
2023/01/13 08:30:15;;;;;;;9.52;6.80;;;;;;;5.95;61.74;95340.38;5086491;28;20035;-69
2023/01/13 08:32:43;;;;;;;13.50;6.88;;;;;;;6.06;61.38;95343.84;5087582;28;20075;-69
2023/01/13 08:35:08;;;;;;;12.27;7.97;;;;;;;6.15;61.13;95345.38;5084536;28;20506;-69
2023/01/13 08:37:34;;;;;;;11.85;7.78;;;;;;;6.23;60.63;95346.88;5087542;28;20028;-69
2023/01/13 08:39:59;;;;;;;10.05;7.50;;;;;;;6.18;60.84;95342.59;5086300;28;20481;-67
2023/01/13 08:42:25;;;;;;;8.60;6.20;;;;;;;6.25;60.29;95342.59;5086650;28;20097;-68
2023/01/13 08:44:51;;;;;;;8.43;6.15;;;;;;;6.37;60.34;95339.41;5086694;28;20077;-69
2023/01/13 08:47:17;;;;;;;10.15;6.82;;;;;;;6.47;59.71;95335.03;5086195;28;20115;-69
2023/01/13 08:49:42;;;;;;;8.82;6.28;;;;;;;6.50;59.61;95339.69;5087089;28;20539;-70
2023/01/13 08:52:08;;;;;;;7.63;5.72;;;;;;;6.57;59.33;95347.84;5067579;28;20036;-68
2023/01/13 08:54:33;;;;;;;8.73;6.13;;;;;;;6.66;59.07;95347.41;5087113;28;20031;-69
2023/01/13 08:56:59;;;;;;;8.38;5.90;;;;;;;6.76;58.70;95340.28;5088495;28;20085;-68
2023/01/13 08:59:24;;;;;;;9.90;6.63;;;;;;;6.79;59.01;95342.22;5087018;28;20267;-69
2023/01/13 09:01:49;;;;;;;9.18;6.15;;;;;;;6.84;58.65;95339.06;5088393;28;20024;-69
2023/01/13 09:04:18;;;;;;;10.88;5.30;;;;;;;6.87;58.74;95341.75;5086416;28;20047;-68
2023/01/13 09:06:43;;;;;;;10.80;6.13;;;;;;;6.85;58.35;95341.38;5085245;28;20529;-69
2023/01/13 09:09:09;;;;;;;7.57;5.00;;;;;;;6.92;57.88;95346.78;5084153;28;20069;-68
2023/01/13 09:14:21;;;;;;;6.90;4.88;;;;;;;6.88;57.51;95335.13;5084495;28;20111;-68
2023/01/13 09:16:46;;;;;;;5.90;4.72;;;;;;;6.84;57.25;95341.81;5068080;28;20024;-69
2023/01/13 09:19:12;;;;;;;7.65;4.60;;;;;;;6.89;57.21;95342.16;5085268;28;20035;-69
2023/01/13 09:21:37;;;;;;;5.38;4.43;;;;;;;6.91;57.27;95337.03;5086065;28;20016;-71
2023/01/13 09:24:03;;;;;;;8.20;5.30;;;;;;;6.95;57.39;95339.00;5086472;28;20016;-69
2023/01/13 09:26:28;;;;;;;6.53;5.20;;;;;;;6.98;57.24;95340.91;5085532;28;20028;-68
2023/01/13 09:28:54;;;;;;;6.82;4.63;;;;;;;6.89;57.03;95328.47;5086681;28;20024;-69
2023/01/13 09:31:19;;;;;;;8.65;4.75;;;;;;;6.73;57.42;95332.91;5085313;28;20410;-71
2023/01/13 09:36:29;;;;;;;9.88;5.07;;;;;;;6.64;57.49;95327.88;5086266;28;20130;-69
2023/01/13 09:38:54;;;;;;;7.53;4.35;;;;;;;6.64;57.82;95334.13;5086390;28;20020;-70
2023/01/13 09:44:07;;;;;;;5.95;4.03;;;;;;;6.68;57.68;95327.88;5085523;28;20490;-70
2023/01/13 09:46:48;;;;;;;5.57;4.43;;;;;;;6.76;57.38;95330.13;5068174;28;20028;-69
2023/01/13 09:49:40;;;;;;;7.63;4.40;;;;;;;6.81;57.45;95332.44;5083850;28;20103;-69
2023/01/13 09:52:13;;;;;;;5.28;4.20;;;;;;;6.90;57.40;95324.56;5084954;28;20506;-69
2023/01/13 09:54:43;;;;;;;;;;;;;;;7.03;57.24;95315.88;5087574;28;20508;-69
2023/01/13 09:57:12;;;;;;;6.32;4.70;;;;;;;7.19;56.84;95318.84;5085170;28;19999;-70
2023/01/13 09:59:38;;;;;;;11.43;4.75;;;;;;;7.31;56.46;95318.31;5084395;28;20044;-69
2023/01/13 10:02:23;;;;;;;7.47;4.82;;;;;;;7.47;56.46;95309.56;5085201;28;20031;-70
2023/01/13 10:05:05;;;;;;;12.60;5.10;;;;;;;7.62;55.80;95313.69;5084125;28;20058;-68
2023/01/13 10:07:33;;;;;;;8.90;5.35;;;;;;;7.65;55.32;95310.16;5085906;28;20433;-70
2023/01/13 10:09:58;;;;;;;6.15;4.13;;;;;;;7.63;55.37;95301.56;5083292;28;20122;-69
2023/01/13 10:15:16;;;;;;;7.82;3.65;;;;;;;7.65;55.17;95307.41;5069413;28;20042;-69
2023/01/13 10:17:49;;;;;;;7.60;4.18;;;;;;;7.62;55.46;95310.16;5084284;28;20024;-70
2023/01/13 10:20:21;;;;;;;14.15;6.10;;;;;;;7.67;55.01;95296.03;5068165;28;20066;-69
2023/01/13 10:23:24;;;;;;;9.35;4.65;;;;;;;7.83;54.05;95295.47;5084680;28;20035;-71
2023/01/13 10:26:27;;;;;;;6.88;4.32;;;;;;;7.69;54.27;95299.94;5085382;28;20431;-68
2023/01/13 10:28:53;;;;;;;6.68;3.65;;;;;;;7.56;54.89;95292.66;5085791;28;20032;-69
2023/01/13 10:31:20;;;;;;;7.53;4.22;;;;;;;7.42;55.43;95296.34;5086034;28;20115;-68
2023/01/13 10:33:45;;;;;;;6.95;4.22;;;;;;;7.33;55.86;95299.53;5089605;28;20035;-69
2023/01/13 10:36:10;;;;;;;6.53;4.25;;;;;;;7.37;56.20;95291.31;5087498;28;20036;-70
2023/01/13 10:38:38;;;;;;;5.20;3.78;;;;;;;7.34;56.12;95281.97;5088398;28;20266;-69
2023/01/13 10:41:05;;;;;;;5.93;4.40;;;;;;;7.18;56.79;95273.53;5086472;28;20056;-69
2023/01/13 10:43:30;;;;;;;4.75;3.80;;;;;;;7.03;57.08;95272.13;5084799;28;20024;-74
2023/01/13 10:45:57;;;;;;;7.35;4.43;;;;;;;7.00;57.44;95281.94;5068674;28;20134;-68
2023/01/13 10:48:23;;;;;;;8.65;4.32;;;;;;;7.03;57.58;95283.06;5087342;28;20036;-69
2023/01/13 10:50:49;;;;;;;6.70;4.47;;;;;;;7.15;57.70;95277.84;5073010;28;20128;-68
2023/01/13 10:53:21;;;;;;;6.75;4.30;;;;;;;7.34;56.90;95284.72;5085520;28;20051;-68
2023/01/13 10:56:09;;;;;;;12.88;3.78;;;;;;;7.43;56.30;95273.25;5083649;28;20024;-68
2023/01/13 10:58:34;;;;;;;6.03;3.58;;;;;;;7.45;55.87;95276.34;5083189;28;20028;-69
2023/01/13 11:01:04;;;;;;;5.28;3.63;;;;;;;7.48;56.21;95275.56;5087150;28;20387;-69
2023/01/13 11:03:40;;;;;;;7.32;4.60;;;;;;;7.59;55.92;95269.97;5087041;28;20032;-68
2023/01/13 11:06:06;;;;;;;6.82;4.88;;;;;;;7.65;55.39;95273.78;5086743;28;20499;-69
2023/01/13 11:08:43;;;;;;;6.18;4.20;;;;;;;7.70;55.45;95263.19;5087029;28;20117;-68
2023/01/13 11:11:38;;;;;;;7.53;4.43;;;;;;;7.79;55.41;95267.34;5088254;28;20071;-68
2023/01/13 11:14:35;;;;;;;6.75;4.45;;;;;;;7.76;55.30;95271.72;5086622;28;20400;-69
2023/01/13 11:17:08;;;;;;;7.18;4.97;;;;;;;7.77;55.43;95272.47;5087909;28;20032;-69
2023/01/13 11:19:34;;;;;;;9.52;5.55;;;;;;;7.76;55.61;95266.22;5084411;28;20464;-69
2023/01/13 11:22:22;;;;;;;8.75;4.70;;;;;;;7.61;55.39;95249.19;5061620;28;20036;-70
2023/01/13 11:24:55;;;;;;;9.43;5.65;;;;;;;7.64;55.48;95267.56;5052197;28;20024;-70
2023/01/13 11:27:40;;;;;;;15.27;7.45;;;;;;;7.54;55.68;95260.25;5066103;28;20035;-69
2023/01/13 11:30:38;;;;;;;8.13;4.22;;;;;;;7.48;56.24;95261.88;5079886;28;20028;-70
2023/01/13 11:33:10;;;;;;;4.53;3.33;;;;;;;7.42;56.10;95258.03;5066897;28;20078;-68
2023/01/13 11:35:56;;;;;;;5.82;3.42;;;;;;;7.38;56.51;95262.78;5075759;28;20023;-68
2023/01/13 11:38:27;;;;;;;4.90;3.50;;;;;;;7.29;56.76;95268.75;5070970;28;20444;-68
2023/01/13 11:40:53;;;;;;;5.85;4.32;;;;;;;7.23;57.05;95253.97;5087372;28;20035;-68
2023/01/13 11:43:58;;;;;;;6.72;3.97;;;;;;;7.24;57.00;95254.72;5086804;28;20028;-70
2023/01/13 11:46:25;;;;;;;8.38;4.53;;;;;;;7.26;56.90;95257.81;5089109;28;20055;-70
2023/01/13 11:48:51;;;;;;;9.52;5.10;;;;;;;7.11;57.12;95255.25;5066352;28;20046;-68
2023/01/13 11:51:40;;;;;;;7.97;4.88;;;;;;;7.06;57.37;95257.66;5068249;28;20029;-70
2023/01/13 11:54:08;;;;;;;8.25;4.00;;;;;;;6.99;57.50;95249.50;5066711;28;20497;-69
2023/01/13 11:57:11;;;;;;;7.00;4.22;;;;;;;6.99;57.47;95244.81;5087644;28;20482;-68
2023/01/13 12:00:09;;;;;;;5.00;3.55;;;;;;;7.01;57.52;95239.75;5088323;28;20081;-67
2023/01/13 12:03:00;;;;;;;5.53;3.92;;;;;;;7.14;57.67;95246.22;5087026;28;20032;-68
2023/01/13 12:06:01;;;;;;;5.78;3.90;;;;;;;7.16;57.50;95240.34;5077898;28;20032;-68
2023/01/13 12:09:02;;;;;;;5.78;3.72;;;;;;;7.27;57.34;95241.00;5087861;28;20143;-69
2023/01/13 12:12:18;;;;;;;4.78;3.50;;;;;;;7.36;57.06;95237.78;5084078;28;20059;-69
2023/01/13 12:14:27;;;;;;;5.87;3.90;;;;;;;7.32;56.87;95226.13;5070760;28;20490;-69
2023/01/13 12:16:52;;;;;;;5.68;3.70;;;;;;;7.40;56.74;95233.06;5069043;28;20706;-69
2023/01/13 12:19:26;;;;;;;6.45;3.70;;;;;;;7.43;56.69;95224.81;5080471;28;20032;-70
2023/01/13 12:22:00;;;;;;;4.38;3.35;;;;;;;7.42;56.54;95234.19;5082970;28;20040;-70
2023/01/13 12:24:28;;;;;;;6.47;3.72;;;;;;;7.51;56.29;95224.72;5083683;28;20030;-69
2023/01/13 12:26:59;;;;;;;8.27;4.50;;;;;;;7.52;56.35;95221.59;5068227;28;20109;-69
2023/01/13 12:29:37;;;;;;;5.97;3.95;;;;;;;7.66;56.04;95229.59;5067567;28;20133;-69
2023/01/13 12:32:12;;;;;;;4.38;2.90;;;;;;;7.71;55.89;95225.63;5067416;28;20036;-69
2023/01/13 12:35:14;;;;;;;6.05;3.80;;;;;;;7.77;55.79;95224.00;5084592;28;20068;-69
2023/01/13 12:37:49;;;;;;;7.32;4.32;;;;;;;7.84;55.82;95220.38;5083985;28;20028;-67
2023/01/13 12:40:24;;;;;;;8.15;4.30;;;;;;;7.83;55.54;95227.03;5066735;28;20055;-70
2023/01/13 12:46:20;;;;;;;8.48;4.68;;;;;;;7.92;55.29;95224.59;5069598;28;20086;-69